Pompano Beach, FL (33065)

4:28 AM EDT on April 24, 2017 (GMT -0400)
| | Change Station
Active Advisory: Special Statement

Elev -9999 ft 0.00 °N, 0.00 °E | Updated 12 minutes ago

Partly Cloudy
Partly Cloudy
°F
Feels Like °F
N
Wind Variable Wind from North
Gusts mph

Today
High -- | Low -- °F
--% Chance of Precip.
Yesterday
High -- | Low -- °F
Precip. -- in
Pressure 29.74 in
Visibility 10.0 miles
Clouds Few 300 ft
Dew Point Not available.
Humidity Not available.
Rainfall --
Snow Depth Not available.
6:49 AM 7:49 PM
Waning Crescent, 7% visible
SPECI KFXE 240815Z 27004KT 10SM FEW003 22/19 A2974 RMK AO2 T02170194
Pressure 29.74 in
Visibility 10.0 miles
Clouds Few 300 ft
Dew Point Not available.
Humidity Not available.
Rainfall --
Snow Depth Not available.
6:49 AM 7:49 PM
Waning Crescent, 7% visible
SPECI KFXE 240815Z 27004KT 10SM FEW003 22/19 A2974 RMK AO2 T02170194

Get Your Daily Forecast Email!

Thanks for signing up!

Be on the lookout for a verification email in your inbox.

You'll start receiving severe weather alerts in your inbox..

×

10-Day Weather Forecast

Almanac

Astronomy

Apr. 24, 2017 Rise Set
Actual Time
Civil Twilight
Nautical Twilight
Astronomical Twilight
Moon
Length of Visible Light
Length of Day
Tomorrow will be .
, % of the Moon is Illuminated

Today's Extremes

State Highs State Lows

Community

WunderPhotos

WunderBlog® & News

Nearby

Air Quality

  Air Quality AQ Index Pollutant
Not available.

Snow Depth

Station Depth Elevation

Earthquake Activity

City Distance Mag. Time & Date
Minimum magnitude displayed is 2.5.

Coastal Water Temperatures

Place Temperature

Stations

Nearby Weather Stations

Station Location Temp. Windchill Dew Point Humidity Wind Precip. Elev Updated Type
                   

Watches & Warnings

Special Statement
Issued: 4:16 AM EDT Apr. 24, 2017 – National Weather Service

... Patchy dense fog continues over Metro areas of Miami-Dade and
Broward counties...

Surface observations along with traffic cams where still showing
patchy dense fog over the Metro areas of Broward and Miami-Dade
counties early this morning. The fog should burn off after sunrise
over these areas. Visibility in the fog will be reduced to one
mile or less, and drivers need to slow down and use low beam
headlights while driving through the fog.


Baxter

239 am EDT Mon Apr 24 2017

... Patchy dense fog developing over Metro areas of Miami-Dade and
Broward counties...

Surface observations along with traffic cams where starting to
show some fog develop over the western Metro areas of Broward and
Miami-Dade counties early this morning. The fog should continue
to develop over these areas through the early morning hours
reducing the visibility with some isolated areas falling below one
quarter of an mile. Drivers need to slow down and use low beam
headlights while driving through the fog early this morning.


Baxter